createdAt,value
2018-05-17T00:02:23.726Z,100.00
2018-05-17T00:04:52.426Z,100.00
2018-05-17T00:07:20.938Z,100.00
2018-05-17T00:09:49.469Z,100.00
2018-05-17T00:12:18.090Z,100.00
2018-05-17T00:14:46.639Z,100.00
2018-05-17T00:17:15.169Z,100.00
2018-05-17T00:19:43.728Z,100.00
2018-05-17T00:22:12.263Z,100.00
2018-05-17T00:24:40.783Z,100.00
2018-05-17T00:27:09.425Z,100.00
2018-05-17T00:29:37.961Z,100.00
2018-05-17T00:32:06.513Z,100.00
2018-05-17T00:34:35.993Z,100.00
2018-05-17T00:37:04.697Z,100.00
2018-05-17T00:39:33.203Z,100.00
2018-05-17T00:42:01.729Z,100.00
2018-05-17T00:44:30.257Z,100.00
2018-05-17T00:46:58.792Z,100.00
2018-05-17T00:49:27.325Z,100.00
2018-05-17T00:51:56.018Z,100.00
2018-05-17T00:54:24.528Z,100.00
2018-05-17T00:56:53.074Z,100.00
2018-05-17T00:59:23.811Z,100.00
2018-05-17T01:01:52.404Z,100.00
2018-05-17T01:04:20.849Z,100.00
2018-05-17T01:06:49.400Z,100.00
2018-05-17T01:09:17.914Z,100.00
2018-05-17T01:11:47.380Z,100.00
2018-05-17T01:14:15.905Z,100.00
2018-05-17T01:16:44.493Z,100.00
2018-05-17T01:19:13.000Z,100.00
2018-05-17T01:21:41.537Z,100.00
2018-05-17T01:24:10.100Z,100.00
2018-05-17T01:26:38.625Z,100.00
2018-05-17T01:29:07.167Z,100.00
2018-05-17T01:31:36.984Z,100.00
2018-05-17T01:34:05.492Z,100.00
2018-05-17T01:36:34.021Z,100.00
2018-05-17T01:39:02.600Z,100.00
2018-05-17T01:41:31.146Z,100.00
2018-05-17T01:43:59.674Z,100.00
2018-05-17T01:46:28.214Z,100.00
2018-05-17T01:48:58.429Z,100.00
2018-05-17T01:51:26.947Z,100.00
2018-05-17T01:53:56.442Z,100.00
2018-05-17T01:56:25.225Z,100.00
2018-05-17T01:58:54.933Z,100.00
2018-05-17T02:01:23.465Z,100.00
2018-05-17T02:03:52.190Z,100.00
2018-05-17T02:06:20.989Z,100.00
2018-05-17T02:08:49.522Z,100.00
2018-05-17T02:11:18.028Z,100.00
2018-05-17T02:13:46.568Z,100.00
2018-05-17T02:16:15.105Z,100.00
2018-05-17T02:18:43.620Z,100.00
2018-05-17T02:21:12.173Z,100.00
2018-05-17T02:23:40.692Z,100.00
2018-05-17T02:26:09.225Z,100.00
2018-05-17T02:28:37.777Z,100.00
2018-05-17T02:31:06.294Z,100.00
2018-05-17T02:33:34.821Z,100.00
2018-05-17T02:36:03.497Z,100.00
2018-05-17T02:38:32.099Z,100.00
2018-05-17T02:41:00.635Z,100.00
2018-05-17T02:43:29.366Z,100.00
2018-05-17T02:45:57.905Z,100.00
2018-05-17T02:48:27.429Z,100.00
2018-05-17T02:50:55.945Z,100.00
2018-05-17T02:53:24.478Z,100.00
2018-05-17T02:55:53.002Z,100.00
2018-05-17T02:58:21.523Z,100.00
2018-05-17T03:00:50.367Z,100.00
2018-05-17T03:03:18.865Z,100.00
2018-05-17T03:05:47.393Z,100.00
2018-05-17T03:08:16.061Z,100.00
2018-05-17T03:10:44.578Z,100.00
2018-05-17T03:13:13.129Z,100.00
2018-05-17T03:15:41.773Z,100.00
2018-05-17T03:18:10.291Z,100.00
2018-05-17T03:20:38.852Z,100.00
2018-05-17T03:23:08.349Z,100.00
2018-05-17T03:25:36.882Z,100.00
2018-05-17T03:28:05.400Z,100.00
2018-05-17T03:30:34.426Z,100.00
2018-05-17T03:33:02.947Z,100.00
2018-05-17T03:35:32.439Z,100.00
2018-05-17T03:38:01.098Z,100.00
2018-05-17T03:40:29.624Z,100.00
2018-05-17T03:42:58.141Z,100.00
2018-05-17T03:45:26.984Z,100.00
2018-05-17T03:47:55.520Z,100.00
2018-05-17T03:50:24.052Z,100.00
2018-05-17T03:52:52.948Z,100.00
2018-05-17T03:55:21.477Z,100.00
2018-05-17T03:57:50.005Z,100.00
2018-05-17T04:00:18.748Z,100.00
2018-05-17T04:02:59.096Z,100.00
2018-05-17T04:05:39.453Z,100.00
2018-05-17T04:08:07.993Z,100.00
2018-05-17T04:10:36.705Z,100.00
2018-05-17T04:13:05.197Z,100.00
2018-05-17T04:15:33.727Z,100.00
2018-05-17T04:18:02.245Z,100.00
2018-05-17T04:20:30.780Z,100.00
2018-05-17T04:23:00.565Z,100.00
2018-05-17T04:25:29.080Z,100.00
2018-05-17T04:27:57.592Z,100.00
2018-05-17T04:30:26.343Z,100.00
2018-05-17T04:32:54.903Z,100.00
2018-05-17T04:35:24.001Z,100.00
2018-05-17T04:37:52.528Z,100.00
2018-05-17T04:40:21.604Z,100.00
2018-05-17T04:42:50.121Z,100.00
2018-05-17T04:45:18.640Z,100.00
2018-05-17T04:47:47.172Z,100.00
2018-05-17T04:50:15.692Z,100.00
2018-05-17T04:52:44.216Z,100.00
2018-05-17T04:55:12.741Z,100.00
2018-05-17T04:57:42.733Z,100.00
2018-05-17T05:00:11.313Z,100.00
2018-05-17T05:02:40.470Z,100.00
2018-05-17T05:05:08.953Z,100.00
2018-05-17T05:07:38.034Z,100.00
2018-05-17T05:10:07.552Z,100.00
2018-05-17T05:12:36.112Z,100.00
2018-05-17T05:15:04.655Z,100.00
2018-05-17T05:17:33.181Z,100.00
2018-05-17T05:20:01.730Z,100.00
2018-05-17T05:22:30.255Z,100.00
2018-05-17T05:24:59.567Z,100.00
2018-05-17T05:27:28.220Z,100.00
2018-05-17T05:29:57.165Z,100.00
2018-05-17T05:32:25.706Z,100.00
2018-05-17T05:34:54.653Z,100.00
2018-05-17T05:37:23.168Z,100.00
2018-05-17T05:39:51.695Z,100.00
2018-05-17T05:42:20.221Z,100.00
2018-05-17T05:44:48.745Z,100.00
2018-05-17T05:47:17.676Z,100.00
2018-05-17T05:49:46.244Z,100.00
2018-05-17T05:52:15.346Z,100.00
2018-05-17T05:54:43.891Z,100.00
2018-05-17T05:57:13.015Z,100.00
2018-05-17T05:59:41.524Z,100.00
2018-05-17T06:02:10.057Z,100.00
2018-05-17T06:04:38.592Z,100.00
2018-05-17T06:07:07.200Z,100.00
2018-05-17T06:09:35.715Z,100.00
2018-05-17T06:12:04.269Z,100.00
2018-05-17T06:14:32.801Z,100.00
2018-05-17T06:17:01.331Z,100.00
2018-05-17T06:19:35.815Z,99.69
2018-05-17T06:22:05.381Z,99.10
2018-05-17T06:24:35.852Z,99.08
2018-05-17T06:27:08.216Z,97.42
2018-05-17T06:29:39.839Z,97.69
2018-05-17T06:32:13.057Z,96.60
2018-05-17T06:34:44.927Z,96.41
2018-05-17T06:37:18.335Z,95.80
2018-05-17T06:39:50.467Z,95.92
2018-05-17T06:42:19.117Z,93.54
2018-05-17T06:44:48.589Z,92.99
2018-05-17T06:47:17.126Z,91.42
2018-05-17T06:49:45.661Z,91.16
2018-05-17T06:52:14.195Z,88.55
2018-05-17T06:54:42.725Z,88.59
2018-05-17T06:57:11.259Z,87.79
2018-05-17T06:59:39.778Z,86.48
2018-05-17T07:02:08.319Z,86.70
2018-05-17T07:04:36.838Z,84.65
2018-05-17T07:07:05.360Z,84.49
2018-05-17T07:09:33.883Z,85.82
2018-05-17T07:12:02.425Z,85.40
2018-05-17T07:14:30.965Z,86.43
2018-05-17T07:17:00.114Z,84.98
2018-05-17T07:19:28.645Z,83.60
2018-05-17T07:21:57.800Z,83.62
2018-05-17T07:24:26.333Z,81.87
2018-05-17T07:26:55.129Z,82.20
2018-05-17T07:29:23.657Z,82.67
2018-05-17T07:31:52.453Z,81.26
2018-05-17T07:34:20.980Z,84.60
2018-05-17T07:36:50.125Z,83.22
2018-05-17T07:39:18.737Z,83.03
2018-05-17T07:41:48.165Z,82.89
2018-05-17T07:44:16.693Z,82.39
2018-05-17T07:46:45.261Z,82.77
2018-05-17T07:49:13.771Z,81.63
2018-05-17T07:51:43.060Z,82.69
2018-05-17T07:54:11.601Z,80.20
2018-05-17T07:56:40.577Z,81.91
2018-05-17T07:59:09.103Z,83.42
2018-05-17T08:01:38.213Z,81.87
2018-05-17T08:04:07.697Z,82.38
2018-05-17T08:06:36.228Z,82.08
2018-05-17T08:09:06.061Z,80.83
2018-05-17T08:11:34.552Z,81.15
2018-05-17T08:14:03.574Z,81.32
2018-05-17T08:16:32.140Z,78.36
2018-05-17T08:19:01.166Z,77.67
2018-05-17T08:21:29.734Z,77.21
2018-05-17T08:24:01.102Z,76.63
2018-05-17T08:26:29.603Z,78.90
2018-05-17T08:28:58.776Z,76.00
2018-05-17T08:31:27.324Z,74.86
2018-05-17T08:33:56.965Z,75.82
2018-05-17T08:36:25.538Z,77.31
2018-05-17T08:38:54.463Z,77.24
2018-05-17T08:41:23.017Z,80.34
2018-05-17T08:43:51.849Z,81.25
2018-05-17T08:46:20.385Z,81.06
2018-05-17T08:48:48.905Z,83.53
2018-05-17T08:51:17.438Z,83.04
2018-05-17T08:53:46.310Z,82.04
2018-05-17T08:56:14.822Z,79.81
2018-05-17T08:58:44.018Z,79.71
2018-05-17T09:01:12.553Z,80.64
2018-05-17T09:03:41.364Z,79.17
2018-05-17T09:06:09.964Z,80.02
2018-05-17T09:08:38.865Z,79.11
2018-05-17T09:11:07.398Z,76.81
2018-05-17T09:13:36.411Z,76.27
2018-05-17T09:16:04.948Z,78.06
2018-05-17T09:18:33.843Z,78.41
2018-05-17T09:21:02.378Z,78.10
2018-05-17T09:23:31.369Z,76.64
2018-05-17T09:25:59.904Z,77.88
2018-05-17T09:28:28.412Z,77.43
2018-05-17T09:30:56.953Z,77.52
2018-05-17T09:33:25.685Z,77.95
2018-05-17T09:35:55.172Z,77.73
2018-05-17T09:38:23.713Z,78.69
2018-05-17T09:40:52.275Z,77.05
2018-05-17T09:43:20.795Z,79.01
2018-05-17T09:45:49.340Z,77.80
2018-05-17T09:48:18.328Z,77.12
2018-05-17T09:50:46.852Z,76.50
2018-05-17T09:53:15.777Z,76.95
2018-05-17T09:55:44.297Z,75.20
2018-05-17T09:58:12.821Z,77.82
2018-05-17T10:00:49.886Z,76.62
2018-05-17T10:03:19.061Z,81.82
2018-05-17T10:05:47.600Z,83.34
2018-05-17T10:08:17.251Z,84.85
2018-05-17T10:10:45.787Z,84.33
2018-05-17T10:13:15.141Z,84.33
2018-05-17T10:15:43.676Z,83.73
2018-05-17T10:18:12.912Z,83.36
2018-05-17T10:20:41.452Z,82.65
2018-05-17T10:23:10.773Z,78.47
2018-05-17T10:25:39.238Z,73.51
2018-05-17T10:28:08.392Z,73.24
2018-05-17T10:30:36.925Z,73.88
2018-05-17T10:33:05.629Z,71.18
2018-05-17T10:35:34.156Z,71.06
2018-05-17T10:38:03.220Z,70.76
2018-05-17T10:40:39.037Z,72.29
2018-05-17T10:43:07.574Z,71.03
2018-05-17T10:45:36.562Z,71.88
2018-05-17T10:48:05.100Z,72.76
2018-05-17T10:50:33.611Z,72.12
2018-05-17T10:53:02.173Z,71.91
2018-05-17T10:55:31.195Z,70.01
2018-05-17T10:57:59.704Z,71.74
2018-05-17T11:00:28.926Z,67.57
2018-05-17T11:02:57.433Z,67.17
2018-05-17T11:05:26.448Z,62.94
2018-05-17T11:07:54.980Z,61.00
2018-05-17T11:10:24.183Z,61.87
2018-05-17T11:12:52.704Z,62.28
2018-05-17T11:15:21.432Z,59.81
2018-05-17T11:17:49.876Z,59.91
2018-05-17T11:20:19.314Z,60.36
2018-05-17T11:22:47.825Z,62.31
2018-05-17T11:25:17.536Z,60.63
2018-05-17T11:27:46.068Z,61.29
2018-05-17T11:30:15.340Z,61.15
2018-05-17T11:32:43.871Z,61.78
2018-05-17T11:35:13.135Z,59.99
2018-05-17T11:37:41.673Z,59.40
2018-05-17T11:40:10.778Z,57.11
2018-05-17T11:42:39.309Z,56.10
2018-05-17T11:45:08.741Z,58.40
2018-05-17T11:47:37.307Z,58.46
2018-05-17T11:50:05.947Z,59.67
2018-05-17T11:52:34.469Z,60.37
2018-05-17T11:55:03.789Z,65.30
2018-05-17T11:57:32.305Z,66.77
2018-05-17T12:00:01.598Z,69.56
2018-05-17T12:02:30.118Z,70.49
2018-05-17T12:04:59.001Z,69.81
2018-05-17T12:07:27.548Z,70.52
2018-05-17T12:09:56.324Z,71.35
2018-05-17T12:12:24.828Z,73.57
2018-05-17T12:14:54.133Z,74.33
2018-05-17T12:17:22.696Z,74.41
2018-05-17T12:19:51.229Z,73.54
2018-05-17T12:22:19.777Z,74.25
2018-05-17T12:24:48.314Z,74.25
2018-05-17T12:27:16.835Z,74.67
2018-05-17T12:29:45.709Z,76.38
2018-05-17T12:32:14.245Z,76.34
2018-05-17T12:34:43.661Z,73.99
2018-05-17T12:37:12.227Z,74.28
2018-05-17T12:39:41.408Z,73.19
2018-05-17T12:42:09.933Z,72.47
2018-05-17T12:44:40.033Z,70.23
2018-05-17T12:47:08.564Z,69.79
2018-05-17T12:49:37.103Z,71.16
2018-05-17T12:52:05.640Z,70.83
2018-05-17T12:54:34.160Z,71.02
2018-05-17T12:57:02.719Z,68.37
2018-05-17T12:59:31.884Z,70.68
2018-05-17T13:02:00.429Z,70.53
2018-05-17T13:04:29.743Z,69.86
2018-05-17T13:06:58.352Z,69.82
2018-05-17T13:09:27.433Z,72.15
2018-05-17T13:11:55.957Z,73.41
2018-05-17T13:14:25.072Z,75.38
2018-05-17T13:16:53.592Z,75.25
2018-05-17T13:19:22.270Z,77.01
2018-05-17T13:21:50.785Z,72.18
2018-05-17T13:24:19.908Z,71.02
2018-05-17T13:26:48.477Z,69.08
2018-05-17T13:29:17.667Z,69.92
2018-05-17T13:31:46.192Z,72.63
2018-05-17T13:34:14.724Z,74.70
2018-05-17T13:36:43.390Z,75.19
2018-05-17T13:39:11.888Z,76.80
2018-05-17T13:41:40.558Z,76.16
2018-05-17T13:44:09.111Z,74.73
2018-05-17T13:46:37.624Z,82.60
2018-05-17T13:49:06.977Z,89.48
2018-05-17T13:51:35.485Z,92.29
2018-05-17T13:54:06.785Z,92.87
2018-05-17T13:56:38.545Z,93.08
2018-05-17T13:59:12.063Z,93.99
2018-05-17T14:01:43.751Z,94.97
2018-05-17T14:04:15.915Z,96.65
2018-05-17T14:06:46.979Z,97.35
2018-05-17T14:09:18.663Z,98.14
2018-05-17T14:11:47.173Z,97.18
2018-05-17T14:14:15.708Z,98.88
2018-05-17T14:16:44.224Z,99.87
2018-05-17T14:19:13.644Z,99.84
2018-05-17T14:21:42.285Z,100.00
2018-05-17T14:24:11.127Z,100.00
2018-05-17T14:26:39.657Z,100.00
2018-05-17T14:29:08.230Z,100.00
2018-05-17T14:31:37.240Z,99.29
2018-05-17T14:34:05.733Z,99.82
2018-05-17T14:36:34.277Z,98.64
2018-05-17T14:39:02.793Z,99.99
2018-05-17T14:41:32.086Z,100.00
2018-05-17T14:44:00.596Z,100.00
2018-05-17T14:46:29.612Z,100.00
2018-05-17T14:48:58.140Z,100.00
2018-05-17T14:51:26.759Z,100.00
2018-05-17T14:53:57.559Z,100.00
2018-05-17T14:56:26.104Z,100.00
2018-05-17T14:58:55.056Z,100.00
2018-05-17T15:01:23.596Z,100.00
2018-05-17T15:03:52.905Z,100.00
2018-05-17T15:06:21.432Z,100.00
2018-05-17T15:08:49.984Z,100.00
2018-05-17T15:11:20.092Z,100.00
2018-05-17T15:13:48.588Z,100.00
2018-05-17T15:16:17.169Z,100.00
2018-05-17T15:18:45.703Z,100.00
2018-05-17T15:21:14.235Z,100.00
2018-05-17T15:23:43.200Z,100.00
2018-05-17T15:26:11.736Z,100.00
2018-05-17T15:28:40.308Z,100.00
2018-05-17T15:31:09.085Z,100.00
2018-05-17T15:33:37.584Z,100.00
2018-05-17T15:36:06.120Z,100.00
2018-05-17T15:38:34.666Z,100.00
2018-05-17T15:41:03.194Z,100.00
2018-05-17T15:43:32.029Z,100.00
2018-05-17T15:46:00.580Z,100.00
2018-05-17T15:48:29.133Z,100.00
2018-05-17T15:50:58.003Z,100.00
2018-05-17T15:53:26.551Z,100.00
2018-05-17T15:55:55.049Z,100.00
2018-05-17T15:58:23.589Z,100.00
2018-05-17T16:00:52.113Z,100.00
2018-05-17T16:03:20.660Z,100.00
2018-05-17T16:05:49.192Z,100.00
2018-05-17T16:08:18.551Z,100.00
2018-05-17T16:10:47.085Z,100.00
2018-05-17T16:13:16.212Z,100.00
2018-05-17T16:15:44.815Z,100.00
2018-05-17T16:18:13.286Z,100.00
2018-05-17T16:20:41.821Z,100.00
2018-05-17T16:23:10.349Z,100.00
2018-05-17T16:25:39.077Z,100.00
2018-05-17T16:28:07.608Z,100.00
2018-05-17T16:30:36.147Z,100.00
2018-05-17T16:33:05.115Z,100.00
2018-05-17T16:35:33.644Z,100.00
2018-05-17T16:38:02.598Z,100.00
2018-05-17T16:40:31.128Z,100.00
2018-05-17T16:42:59.688Z,100.00
2018-05-17T16:45:28.232Z,100.00
2018-05-17T16:47:56.787Z,100.00
2018-05-17T16:50:25.328Z,100.00
2018-05-17T16:52:53.937Z,100.00
2018-05-17T16:55:22.678Z,100.00
2018-05-17T16:57:51.276Z,100.00
2018-05-17T17:00:20.893Z,100.00
2018-05-17T17:02:49.420Z,99.79
2018-05-17T17:05:17.944Z,99.53
2018-05-17T17:07:46.500Z,98.98
2018-05-17T17:10:15.010Z,99.13
2018-05-17T17:12:43.718Z,99.01
2018-05-17T17:15:12.258Z,98.39
2018-05-17T17:17:42.174Z,98.19
2018-05-17T17:20:10.698Z,97.64
2018-05-17T17:22:39.253Z,98.03
2018-05-17T17:25:07.773Z,99.21
2018-05-17T17:27:36.321Z,99.37
2018-05-17T17:30:05.220Z,99.24
2018-05-17T17:32:33.756Z,98.63
2018-05-17T17:35:02.861Z,99.22
2018-05-17T17:37:31.393Z,99.53
2018-05-17T17:39:59.917Z,99.92
2018-05-17T17:42:28.462Z,99.93
2018-05-17T17:44:56.995Z,100.00
2018-05-17T17:47:25.525Z,100.00
2018-05-17T17:49:54.074Z,100.00
2018-05-17T17:52:23.304Z,100.00
2018-05-17T17:54:51.890Z,100.00
2018-05-17T17:57:20.442Z,100.00
2018-05-17T17:59:48.980Z,100.00
2018-05-17T18:02:17.545Z,100.00
2018-05-17T18:04:46.306Z,100.00
2018-05-17T18:07:14.837Z,100.00
2018-05-17T18:09:43.360Z,100.00
2018-05-17T18:12:12.014Z,100.00
2018-05-17T18:14:40.548Z,100.00
2018-05-17T18:17:09.826Z,100.00
2018-05-17T18:19:38.648Z,100.00
2018-05-17T18:22:07.197Z,100.00
2018-05-17T18:24:35.738Z,100.00
2018-05-17T18:27:04.441Z,100.00
2018-05-17T18:29:32.956Z,100.00
2018-05-17T18:32:01.493Z,100.00
2018-05-17T18:34:30.171Z,100.00
2018-05-17T18:36:58.680Z,100.00
2018-05-17T18:39:27.252Z,100.00
2018-05-17T18:41:55.990Z,100.00
2018-05-17T18:44:24.514Z,100.00
2018-05-17T18:46:53.056Z,100.00
2018-05-17T18:49:21.589Z,100.00
2018-05-17T18:51:50.117Z,100.00
2018-05-17T18:54:18.749Z,100.00
2018-05-17T18:56:47.270Z,100.00
2018-05-17T18:59:15.818Z,100.00
2018-05-17T19:01:44.515Z,100.00
2018-05-17T19:04:13.052Z,100.00
2018-05-17T19:06:41.584Z,100.00
2018-05-17T19:09:10.357Z,100.00
2018-05-17T19:11:38.888Z,100.00
2018-05-17T19:14:07.425Z,100.00
2018-05-17T19:16:36.096Z,100.00
2018-05-17T19:19:04.637Z,100.00
2018-05-17T19:21:33.172Z,100.00
2018-05-17T19:24:01.700Z,100.00
2018-05-17T19:26:30.492Z,100.00
2018-05-17T19:28:59.040Z,100.00
2018-05-17T19:31:27.637Z,100.00
2018-05-17T19:33:57.321Z,100.00
2018-05-17T19:36:25.801Z,100.00
2018-05-17T19:38:54.350Z,100.00
2018-05-17T19:41:22.877Z,100.00
2018-05-17T19:43:51.418Z,100.00
2018-05-17T19:46:19.949Z,100.00
2018-05-17T19:48:48.485Z,100.00
2018-05-17T19:51:17.027Z,100.00
2018-05-17T19:53:45.560Z,100.00
2018-05-17T19:56:14.097Z,100.00
2018-05-17T19:58:42.641Z,100.00
2018-05-17T20:01:11.208Z,100.00
2018-05-17T20:03:39.744Z,100.00
2018-05-17T20:06:08.692Z,100.00
2018-05-17T20:08:37.205Z,100.00
2018-05-17T20:11:05.762Z,100.00
2018-05-17T20:13:34.866Z,100.00
2018-05-17T20:16:03.361Z,100.00
2018-05-17T20:18:31.892Z,100.00
2018-05-17T20:21:00.548Z,100.00
2018-05-17T20:23:29.085Z,100.00
2018-05-17T20:25:58.562Z,100.00
2018-05-17T20:28:27.096Z,100.00
2018-05-17T20:30:55.744Z,100.00
2018-05-17T20:33:24.248Z,100.00
2018-05-17T20:35:52.784Z,100.00
2018-05-17T20:38:21.497Z,100.00
2018-05-17T20:40:50.034Z,100.00
2018-05-17T20:43:18.569Z,100.00
2018-05-17T20:45:47.130Z,100.00
2018-05-17T20:48:15.669Z,100.00
2018-05-17T20:50:44.213Z,100.00
2018-05-17T20:53:12.998Z,100.00
2018-05-17T20:55:41.541Z,100.00
2018-05-17T20:58:10.090Z,100.00
2018-05-17T21:00:38.696Z,100.00
2018-05-17T21:03:07.173Z,100.00
2018-05-17T21:05:36.668Z,100.00
2018-05-17T21:08:05.217Z,100.00
2018-05-17T21:10:33.944Z,100.00
2018-05-17T21:13:02.482Z,100.00
2018-05-17T21:15:31.053Z,100.00
2018-05-17T21:17:59.668Z,100.00
2018-05-17T21:20:28.218Z,100.00
2018-05-17T21:22:56.756Z,100.00
2018-05-17T21:25:25.578Z,100.00
2018-05-17T21:27:54.121Z,100.00
2018-05-17T21:30:22.656Z,100.00
2018-05-17T21:32:51.193Z,100.00
2018-05-17T21:35:19.741Z,100.00
2018-05-17T21:37:48.281Z,100.00
2018-05-17T21:40:16.867Z,100.00
2018-05-17T21:42:45.405Z,100.00
2018-05-17T21:45:13.940Z,100.00
2018-05-17T21:47:42.514Z,100.00
2018-05-17T21:50:11.062Z,100.00
2018-05-17T21:52:39.593Z,100.00
2018-05-17T21:55:09.765Z,100.00
2018-05-17T21:57:38.440Z,100.00
2018-05-17T22:00:06.969Z,100.00
2018-05-17T22:02:35.513Z,100.00
2018-05-17T22:05:04.044Z,100.00
2018-05-17T22:07:32.644Z,100.00
2018-05-17T22:10:01.182Z,100.00
2018-05-17T22:12:29.641Z,100.00
2018-05-17T22:14:58.181Z,100.00
2018-05-17T22:17:26.730Z,100.00
2018-05-17T22:19:55.267Z,100.00
2018-05-17T22:22:24.005Z,100.00
2018-05-17T22:24:52.595Z,100.00
2018-05-17T22:27:21.135Z,100.00
2018-05-17T22:29:50.250Z,100.00
2018-05-17T22:32:18.767Z,100.00
2018-05-17T22:34:47.309Z,100.00
2018-05-17T22:37:16.067Z,100.00
2018-05-17T22:39:44.616Z,100.00
2018-05-17T22:42:13.126Z,100.00
2018-05-17T22:44:41.720Z,100.00
2018-05-17T22:47:10.257Z,100.00
2018-05-17T22:49:38.809Z,100.00
2018-05-17T22:52:07.488Z,100.00
2018-05-17T22:54:36.043Z,100.00
2018-05-17T22:57:12.488Z,100.00
2018-05-17T22:59:41.131Z,100.00
2018-05-17T23:02:09.662Z,100.00
2018-05-17T23:04:38.240Z,100.00
2018-05-17T23:07:06.762Z,100.00
2018-05-17T23:09:35.304Z,100.00
2018-05-17T23:12:03.846Z,100.00
2018-05-17T23:14:32.602Z,100.00
2018-05-17T23:17:01.145Z,100.00
2018-05-17T23:19:29.684Z,100.00
2018-05-17T23:21:58.327Z,100.00
2018-05-17T23:24:26.865Z,100.00
2018-05-17T23:26:55.394Z,100.00
2018-05-17T23:29:23.937Z,100.00
2018-05-17T23:31:52.476Z,100.00
2018-05-17T23:34:21.017Z,100.00
2018-05-17T23:36:49.549Z,100.00
2018-05-17T23:39:18.113Z,100.00
2018-05-17T23:41:46.673Z,100.00
2018-05-17T23:44:15.209Z,100.00
2018-05-17T23:46:44.072Z,100.00
2018-05-17T23:49:12.613Z,100.00
2018-05-17T23:51:41.141Z,100.00
2018-05-17T23:54:10.154Z,100.00
2018-05-17T23:56:38.697Z,100.00
2018-05-17T23:59:07.256Z,100.00
